createdAt,value
2018-12-31T00:00:27.098Z,6.72
2018-12-31T00:01:27.018Z,6.75
2018-12-31T00:02:26.938Z,6.70
2018-12-31T00:03:26.855Z,6.70
2018-12-31T00:04:26.773Z,6.72
2018-12-31T00:05:26.693Z,6.69
2018-12-31T00:06:26.612Z,6.76
2018-12-31T00:07:26.531Z,6.72
2018-12-31T00:08:26.449Z,6.73
2018-12-31T00:09:26.369Z,6.75
2018-12-31T00:10:26.288Z,6.75
2018-12-31T00:11:26.208Z,6.81
2018-12-31T00:12:26.125Z,6.72
2018-12-31T00:13:26.044Z,6.78
2018-12-31T00:14:25.964Z,6.76
2018-12-31T00:15:25.883Z,6.73
2018-12-31T00:16:25.801Z,6.76
2018-12-31T00:17:25.721Z,6.81
2018-12-31T00:18:25.642Z,6.78
2018-12-31T00:19:25.569Z,6.83
2018-12-31T00:20:25.476Z,6.75
2018-12-31T00:21:25.396Z,6.73
2018-12-31T00:22:25.315Z,6.76
2018-12-31T00:23:25.234Z,6.70
2018-12-31T00:24:25.152Z,6.80
2018-12-31T00:25:25.072Z,6.73
2018-12-31T00:26:24.992Z,6.78
2018-12-31T00:27:24.910Z,6.81
2018-12-31T00:28:24.828Z,6.73
2018-12-31T00:29:24.747Z,6.73
2018-12-31T00:30:24.668Z,6.75
2018-12-31T00:31:24.687Z,6.80
2018-12-31T00:32:24.506Z,6.70
2018-12-31T00:33:24.424Z,6.70
2018-12-31T00:34:24.343Z,6.73
2018-12-31T00:35:24.263Z,6.72
2018-12-31T00:36:24.181Z,6.73
2018-12-31T00:37:24.102Z,6.73
2018-12-31T00:38:24.021Z,6.76
2018-12-31T00:39:23.938Z,6.76
2018-12-31T00:40:23.857Z,6.75
2018-12-31T00:41:23.778Z,6.81
2018-12-31T00:42:23.696Z,6.84
2018-12-31T00:43:23.614Z,6.81
2018-12-31T00:44:23.533Z,6.88
2018-12-31T00:45:23.452Z,6.91
2018-12-31T00:46:23.370Z,6.83
2018-12-31T00:47:23.289Z,6.78
2018-12-31T00:48:23.209Z,6.83
2018-12-31T00:49:23.128Z,6.70
2018-12-31T00:50:23.047Z,6.75
2018-12-31T00:51:22.966Z,6.75
2018-12-31T00:52:22.884Z,6.73
2018-12-31T00:53:22.804Z,6.70
2018-12-31T00:54:22.723Z,6.70
2018-12-31T00:55:22.644Z,6.75
2018-12-31T00:56:22.560Z,6.69
2018-12-31T00:57:22.484Z,6.72
2018-12-31T00:58:22.401Z,6.70
2018-12-31T00:59:22.320Z,6.73
2018-12-31T01:00:22.237Z,6.73
2018-12-31T01:01:22.157Z,6.69
2018-12-31T01:02:22.113Z,6.73
2018-12-31T01:03:21.995Z,6.73
2018-12-31T01:04:21.913Z,6.78
2018-12-31T01:05:21.833Z,6.78
2018-12-31T01:06:22.001Z,6.73
2018-12-31T01:07:21.671Z,6.76
2018-12-31T01:08:21.590Z,6.84
2018-12-31T01:09:21.508Z,6.73
2018-12-31T01:10:21.429Z,6.73
2018-12-31T01:11:21.371Z,6.70
2018-12-31T01:12:21.266Z,6.72
2018-12-31T01:13:21.186Z,6.73
2018-12-31T01:14:21.104Z,6.70
2018-12-31T01:15:21.024Z,6.72
2018-12-31T01:16:20.944Z,6.75
2018-12-31T01:17:20.863Z,6.69
2018-12-31T01:18:20.830Z,6.75
2018-12-31T01:19:20.700Z,6.70
2018-12-31T01:20:20.619Z,6.72
2018-12-31T01:21:20.536Z,6.75
2018-12-31T01:22:20.456Z,6.73
2018-12-31T01:23:20.379Z,6.73
2018-12-31T01:24:20.303Z,6.70
2018-12-31T01:25:20.214Z,6.73
2018-12-31T01:26:20.134Z,6.72
2018-12-31T01:27:20.053Z,6.70
2018-12-31T01:28:20.223Z,6.69
2018-12-31T01:29:19.890Z,6.73
2018-12-31T01:30:19.809Z,6.83
2018-12-31T01:31:19.729Z,6.83
2018-12-31T01:32:19.646Z,6.80
2018-12-31T01:33:19.566Z,6.73
2018-12-31T01:34:19.486Z,6.73
2018-12-31T01:35:19.408Z,6.75
2018-12-31T01:36:19.328Z,6.73
2018-12-31T01:37:19.242Z,6.76
2018-12-31T01:38:19.162Z,6.86
2018-12-31T01:39:19.081Z,6.88
2018-12-31T01:40:18.999Z,6.90
2018-12-31T01:41:18.917Z,6.86
2018-12-31T01:42:18.838Z,6.84
2018-12-31T01:43:18.758Z,6.87
2018-12-31T01:44:18.675Z,6.84
2018-12-31T01:45:18.597Z,6.93
2018-12-31T01:46:18.514Z,6.87
2018-12-31T01:47:18.434Z,6.81
2018-12-31T01:48:18.354Z,6.87
2018-12-31T01:49:18.271Z,6.87
2018-12-31T01:50:18.191Z,6.88
2018-12-31T01:51:18.113Z,6.88
2018-12-31T01:52:18.028Z,6.75
2018-12-31T01:53:17.949Z,6.86
2018-12-31T01:54:17.867Z,6.86
2018-12-31T01:55:17.787Z,6.75
2018-12-31T01:56:17.706Z,6.87
2018-12-31T01:57:17.625Z,6.86
2018-12-31T01:58:17.546Z,6.80
2018-12-31T01:59:17.463Z,6.73
2018-12-31T02:00:17.384Z,6.70
2018-12-31T02:01:17.301Z,6.78
2018-12-31T02:02:17.220Z,6.78
2018-12-31T02:03:17.140Z,6.86
2018-12-31T02:04:17.058Z,6.91
2018-12-31T02:05:16.977Z,6.88
2018-12-31T02:06:16.897Z,6.93
2018-12-31T02:07:16.814Z,6.90
2018-12-31T02:08:16.733Z,6.86
2018-12-31T02:09:16.653Z,6.76
2018-12-31T02:10:16.625Z,6.98
2018-12-31T02:11:16.509Z,6.90
2018-12-31T02:12:16.410Z,6.91
2018-12-31T02:13:16.329Z,6.90
2018-12-31T02:14:16.249Z,7.02
2018-12-31T02:15:16.169Z,6.91
2018-12-31T02:16:16.087Z,6.91
2018-12-31T02:17:16.005Z,6.90
2018-12-31T02:18:15.926Z,6.98
2018-12-31T02:19:15.850Z,6.91
2018-12-31T02:20:16.013Z,6.88
2018-12-31T02:21:15.682Z,6.90
2018-12-31T02:22:15.603Z,6.90
2018-12-31T02:23:15.522Z,6.83
2018-12-31T02:24:15.440Z,6.86
2018-12-31T02:25:15.360Z,6.84
2018-12-31T02:26:15.279Z,6.83
2018-12-31T02:27:15.200Z,6.86
2018-12-31T02:28:15.117Z,6.91
2018-12-31T02:29:15.037Z,6.96
2018-12-31T02:30:14.957Z,6.99
2018-12-31T02:31:14.877Z,6.96
2018-12-31T02:32:14.794Z,6.93
2018-12-31T02:33:14.714Z,6.98
2018-12-31T02:34:14.634Z,6.91
2018-12-31T02:35:14.559Z,6.88
2018-12-31T02:36:14.473Z,7.05
2018-12-31T02:37:14.400Z,6.93
2018-12-31T02:38:14.312Z,6.87
2018-12-31T02:39:14.231Z,6.88
2018-12-31T02:40:14.150Z,6.86
2018-12-31T02:41:14.075Z,6.86
2018-12-31T02:42:13.988Z,6.93
2018-12-31T02:43:13.907Z,6.91
2018-12-31T02:44:13.826Z,6.98
2018-12-31T02:45:13.748Z,6.86
2018-12-31T02:46:13.666Z,6.88
2018-12-31T02:47:15.164Z,6.96
2018-12-31T02:48:13.511Z,6.91
2018-12-31T02:49:13.426Z,6.90
2018-12-31T02:50:13.344Z,6.93
2018-12-31T02:51:13.515Z,6.91
2018-12-31T02:52:13.185Z,6.94
2018-12-31T02:53:13.103Z,6.96
2018-12-31T02:54:13.027Z,6.96
2018-12-31T02:55:12.947Z,6.91
2018-12-31T02:56:12.862Z,6.88
2018-12-31T02:57:12.783Z,6.88
2018-12-31T02:58:12.701Z,6.91
2018-12-31T02:59:12.621Z,6.81
2018-12-31T03:00:12.540Z,6.96
2018-12-31T03:01:12.460Z,6.84
2018-12-31T03:02:12.380Z,6.84
2018-12-31T03:03:12.301Z,6.83
2018-12-31T03:04:12.223Z,6.88
2018-12-31T03:05:12.139Z,6.81
2018-12-31T03:06:12.313Z,6.91
2018-12-31T03:07:11.983Z,6.87
2018-12-31T03:08:11.897Z,6.80
2018-12-31T03:09:11.816Z,6.91
2018-12-31T03:10:11.736Z,6.93
2018-12-31T03:11:11.659Z,6.93
2018-12-31T03:12:11.574Z,6.90
2018-12-31T03:13:11.495Z,6.94
2018-12-31T03:14:11.416Z,6.91
2018-12-31T03:15:11.344Z,6.88
2018-12-31T03:16:11.252Z,6.84
2018-12-31T03:17:11.171Z,6.87
2018-12-31T03:18:11.092Z,6.87
2018-12-31T03:19:11.011Z,6.94
2018-12-31T03:20:10.932Z,6.83
2018-12-31T03:21:10.852Z,6.88
2018-12-31T03:22:10.770Z,6.87
2018-12-31T03:23:10.691Z,6.96
2018-12-31T03:24:10.608Z,6.78
2018-12-31T03:25:10.529Z,6.87
2018-12-31T03:26:10.447Z,6.91
2018-12-31T03:27:10.368Z,6.88
2018-12-31T03:28:10.286Z,6.86
2018-12-31T03:29:10.207Z,6.83
2018-12-31T03:30:10.128Z,6.94
2018-12-31T03:31:10.047Z,6.91
2018-12-31T03:32:09.967Z,6.87
2018-12-31T03:33:09.887Z,6.87
2018-12-31T03:34:09.807Z,6.78
2018-12-31T03:35:09.725Z,6.84
2018-12-31T03:36:09.693Z,6.86
2018-12-31T03:37:09.563Z,6.83
2018-12-31T03:38:09.483Z,6.90
2018-12-31T03:39:09.405Z,6.91
2018-12-31T03:40:09.321Z,6.91
2018-12-31T03:41:09.242Z,6.91
2018-12-31T03:42:09.161Z,6.93
2018-12-31T03:43:09.080Z,6.88
2018-12-31T03:44:08.999Z,6.84
2018-12-31T03:45:08.922Z,6.93
2018-12-31T03:46:08.839Z,6.93
2018-12-31T03:47:08.758Z,6.96
2018-12-31T03:48:08.679Z,6.93
2018-12-31T03:49:08.597Z,6.88
2018-12-31T03:50:08.519Z,6.90
2018-12-31T03:51:08.436Z,6.88
2018-12-31T03:52:08.355Z,6.93
2018-12-31T03:53:08.275Z,6.88
2018-12-31T03:54:08.198Z,6.87
2018-12-31T03:55:08.116Z,6.84
2018-12-31T03:56:08.033Z,6.88
2018-12-31T03:57:07.954Z,6.90
2018-12-31T03:58:07.875Z,6.83
2018-12-31T03:59:07.793Z,6.84
2018-12-31T04:00:07.712Z,6.87
2018-12-31T04:01:07.633Z,6.87
2018-12-31T04:02:07.559Z,6.91
2018-12-31T04:03:07.471Z,6.94
2018-12-31T04:04:07.399Z,6.94
2018-12-31T04:05:07.309Z,6.88
2018-12-31T04:06:07.228Z,6.88
2018-12-31T04:07:07.148Z,6.78
2018-12-31T04:08:07.168Z,6.87
2018-12-31T04:09:06.987Z,6.93
2018-12-31T04:10:06.906Z,6.86
2018-12-31T04:11:06.826Z,6.93
2018-12-31T04:12:06.743Z,6.93
2018-12-31T04:13:06.662Z,6.78
2018-12-31T04:14:06.587Z,6.90
2018-12-31T04:15:06.504Z,6.75
2018-12-31T04:16:06.421Z,6.84
2018-12-31T04:17:06.341Z,6.83
2018-12-31T04:18:06.264Z,6.87
2018-12-31T04:19:06.178Z,6.88
2018-12-31T04:20:06.104Z,6.80
2018-12-31T04:21:06.029Z,6.86
2018-12-31T04:22:05.936Z,6.84
2018-12-31T04:23:05.857Z,6.83
2018-12-31T04:24:05.775Z,6.86
2018-12-31T04:25:05.705Z,6.80
2018-12-31T04:26:05.612Z,6.81
2018-12-31T04:27:05.531Z,6.83
2018-12-31T04:28:05.450Z,6.81
2018-12-31T04:29:05.518Z,6.83
2018-12-31T04:30:05.293Z,6.80
2018-12-31T04:31:05.209Z,6.86
2018-12-31T04:32:05.125Z,6.81
2018-12-31T04:33:05.046Z,6.78
2018-12-31T04:34:04.965Z,6.72
2018-12-31T04:35:04.885Z,6.72
2018-12-31T04:36:04.802Z,6.73
2018-12-31T04:37:04.723Z,6.75
2018-12-31T04:38:04.640Z,6.75
2018-12-31T04:39:04.661Z,6.76
2018-12-31T04:40:04.479Z,6.73
2018-12-31T04:41:04.399Z,6.78
2018-12-31T04:42:04.316Z,6.73
2018-12-31T04:43:04.235Z,6.73
2018-12-31T04:44:04.154Z,6.70
2018-12-31T04:45:04.072Z,6.75
2018-12-31T04:46:03.992Z,6.75
2018-12-31T04:47:03.918Z,6.73
2018-12-31T04:48:03.830Z,6.72
2018-12-31T04:49:03.753Z,6.81
2018-12-31T04:50:03.668Z,6.80
2018-12-31T04:51:03.587Z,6.86
2018-12-31T04:52:03.507Z,6.84
2018-12-31T04:53:03.436Z,6.78
2018-12-31T04:54:03.343Z,6.83
2018-12-31T04:55:03.264Z,6.86
2018-12-31T04:56:03.181Z,6.75
2018-12-31T04:57:03.106Z,6.80
2018-12-31T04:58:03.019Z,6.86
2018-12-31T04:59:02.938Z,6.81
2018-12-31T05:00:02.857Z,6.69
2018-12-31T05:01:02.780Z,6.69
2018-12-31T05:02:02.697Z,6.75
2018-12-31T05:03:02.614Z,6.75
2018-12-31T05:04:02.537Z,6.73
2018-12-31T05:05:02.457Z,6.72
2018-12-31T05:06:02.372Z,6.76
2018-12-31T05:07:02.306Z,6.83
2018-12-31T05:08:02.209Z,6.80
2018-12-31T05:09:02.230Z,6.72
2018-12-31T05:10:02.147Z,6.69
2018-12-31T05:11:01.966Z,6.75
2018-12-31T05:12:01.885Z,6.69
2018-12-31T05:13:01.804Z,6.73
2018-12-31T05:14:01.731Z,6.78
2018-12-31T05:15:01.646Z,6.83
2018-12-31T05:16:01.614Z,6.75
2018-12-31T05:17:01.480Z,6.76
2018-12-31T05:18:01.399Z,6.78
2018-12-31T05:19:01.319Z,6.86
2018-12-31T05:20:01.237Z,6.83
2018-12-31T05:21:01.156Z,6.80
2018-12-31T05:22:01.079Z,6.87
2018-12-31T05:23:00.995Z,6.93
2018-12-31T05:24:00.914Z,6.86
2018-12-31T05:25:00.839Z,6.87
2018-12-31T05:26:00.753Z,6.90
2018-12-31T05:27:00.698Z,6.91
2018-12-31T05:28:00.592Z,6.93
2018-12-31T05:29:00.512Z,6.94
2018-12-31T05:30:00.430Z,6.90
2018-12-31T05:31:00.349Z,6.93
2018-12-31T05:32:00.267Z,6.91
2018-12-31T05:33:00.189Z,6.88
2018-12-31T05:34:00.106Z,6.81
2018-12-31T05:35:00.029Z,6.91
2018-12-31T05:35:59.945Z,6.83
2018-12-31T05:36:59.864Z,6.87
2018-12-31T05:37:59.784Z,6.94
2018-12-31T05:38:59.704Z,6.91
2018-12-31T05:39:59.622Z,6.90
2018-12-31T05:40:59.542Z,7.01
2018-12-31T05:41:59.461Z,6.93
2018-12-31T05:42:59.482Z,6.86
2018-12-31T05:43:59.300Z,6.98
2018-12-31T05:44:59.223Z,6.87
2018-12-31T05:45:59.139Z,6.86
2018-12-31T05:46:59.059Z,6.90
2018-12-31T05:47:58.978Z,6.88
2018-12-31T05:48:58.898Z,6.91
2018-12-31T05:49:58.822Z,6.86
2018-12-31T05:50:58.737Z,6.87
2018-12-31T05:51:58.655Z,6.87
2018-12-31T05:52:58.674Z,6.91
2018-12-31T05:53:58.501Z,6.80
2018-12-31T05:54:58.414Z,6.91
2018-12-31T05:55:58.332Z,6.87
2018-12-31T05:56:58.252Z,6.84
2018-12-31T05:57:58.172Z,6.88
2018-12-31T05:58:58.092Z,6.91
2018-12-31T05:59:58.011Z,6.86
2018-12-31T06:00:57.928Z,6.93
2018-12-31T06:01:57.849Z,6.91
2018-12-31T06:02:57.768Z,6.98
2018-12-31T06:03:57.729Z,6.98
2018-12-31T06:04:57.606Z,6.94
2018-12-31T06:05:57.526Z,6.93
2018-12-31T06:06:57.446Z,6.96
2018-12-31T06:07:57.364Z,7.02
2018-12-31T06:08:57.285Z,7.01
2018-12-31T06:09:57.204Z,6.99
2018-12-31T06:10:57.123Z,7.01
2018-12-31T06:11:57.042Z,6.99
2018-12-31T06:12:56.966Z,7.02
2018-12-31T06:13:56.932Z,7.06
2018-12-31T06:14:56.802Z,7.03
2018-12-31T06:15:56.721Z,7.05
2018-12-31T06:16:56.640Z,6.99
2018-12-31T06:17:56.561Z,7.01
2018-12-31T06:18:56.481Z,7.06
2018-12-31T06:19:56.398Z,7.01
2018-12-31T06:20:56.320Z,7.02
2018-12-31T06:21:56.239Z,7.02
2018-12-31T06:22:56.158Z,6.99
2018-12-31T06:23:56.078Z,7.02
2018-12-31T06:24:55.997Z,7.02
2018-12-31T06:25:55.917Z,7.06
2018-12-31T06:26:55.836Z,7.13
2018-12-31T06:27:55.755Z,7.06
2018-12-31T06:28:55.675Z,7.12
2018-12-31T06:29:55.593Z,7.16
2018-12-31T06:30:55.515Z,7.08
2018-12-31T06:31:55.433Z,7.13
2018-12-31T06:32:55.353Z,7.11
2018-12-31T06:33:55.285Z,7.06
2018-12-31T06:34:55.193Z,7.08
2018-12-31T06:35:55.113Z,7.02
2018-12-31T06:36:55.032Z,7.02
2018-12-31T06:37:54.953Z,7.03
2018-12-31T06:38:54.874Z,7.08
2018-12-31T06:39:54.791Z,7.01
2018-12-31T06:40:54.709Z,6.98
2018-12-31T06:41:54.629Z,7.09
2018-12-31T06:42:54.549Z,7.13
2018-12-31T06:43:54.468Z,7.05
2018-12-31T06:44:54.389Z,7.08
2018-12-31T06:45:54.307Z,7.16
2018-12-31T06:46:55.905Z,7.16
2018-12-31T06:47:54.146Z,7.13
2018-12-31T06:48:54.066Z,7.13
2018-12-31T06:49:53.985Z,7.16
2018-12-31T06:50:53.904Z,7.23
2018-12-31T06:51:53.824Z,7.11
2018-12-31T06:52:53.746Z,7.16
2018-12-31T06:53:53.664Z,7.13
2018-12-31T06:54:53.584Z,7.17
2018-12-31T06:55:53.506Z,7.19
2018-12-31T06:56:53.422Z,7.24
2018-12-31T06:57:53.342Z,7.26
2018-12-31T06:58:53.261Z,7.24
2018-12-31T06:59:53.181Z,7.27
2018-12-31T07:00:53.352Z,7.27
2018-12-31T07:01:53.021Z,7.29
2018-12-31T07:02:52.941Z,7.17
2018-12-31T07:03:52.859Z,7.26
2018-12-31T07:04:52.780Z,7.23
2018-12-31T07:05:52.701Z,7.23
2018-12-31T07:06:52.620Z,7.12
2018-12-31T07:07:52.539Z,7.13
2018-12-31T07:08:52.458Z,7.19
2018-12-31T07:09:52.378Z,7.24
2018-12-31T07:10:52.298Z,7.27
2018-12-31T07:11:52.217Z,7.29
2018-12-31T07:12:52.138Z,7.29
2018-12-31T07:13:52.057Z,7.31
2018-12-31T07:14:51.977Z,7.31
2018-12-31T07:15:51.897Z,7.30
2018-12-31T07:16:51.817Z,7.29
2018-12-31T07:17:51.798Z,7.26
2018-12-31T07:18:51.655Z,7.24
2018-12-31T07:19:51.576Z,7.34
2018-12-31T07:20:51.495Z,7.37
2018-12-31T07:21:51.414Z,7.39
2018-12-31T07:22:51.334Z,7.37
2018-12-31T07:23:51.258Z,7.34
2018-12-31T07:24:51.178Z,7.35
2018-12-31T07:25:51.095Z,7.35
2018-12-31T07:26:51.014Z,7.34
2018-12-31T07:27:50.933Z,7.34
2018-12-31T07:28:50.857Z,7.34
2018-12-31T07:29:50.774Z,7.30
2018-12-31T07:30:50.693Z,7.35
2018-12-31T07:31:50.612Z,7.37
2018-12-31T07:32:50.533Z,7.30
2018-12-31T07:33:50.453Z,7.26
2018-12-31T07:34:50.373Z,7.39
2018-12-31T07:35:50.292Z,7.30
2018-12-31T07:36:50.213Z,7.37
2018-12-31T07:37:50.133Z,7.31
2018-12-31T07:38:50.053Z,7.41
2018-12-31T07:39:49.974Z,7.37
2018-12-31T07:40:49.894Z,7.39
2018-12-31T07:41:49.813Z,7.37
2018-12-31T07:42:49.733Z,7.27
2018-12-31T07:43:49.652Z,7.31
2018-12-31T07:44:49.575Z,7.26
2018-12-31T07:45:49.495Z,7.30
2018-12-31T07:46:49.414Z,7.30
2018-12-31T07:47:49.332Z,7.27
2018-12-31T07:48:49.253Z,7.30
2018-12-31T07:49:49.174Z,7.21
2018-12-31T07:50:49.094Z,7.24
2018-12-31T07:51:49.018Z,7.31
2018-12-31T07:52:48.934Z,7.29
2018-12-31T07:53:48.854Z,7.31
2018-12-31T07:54:48.775Z,7.34
2018-12-31T07:55:48.693Z,7.35
2018-12-31T07:56:48.617Z,7.44
2018-12-31T07:57:48.534Z,7.49
2018-12-31T07:58:48.554Z,7.47
2018-12-31T07:59:48.373Z,7.48
2018-12-31T08:00:48.295Z,7.47
2018-12-31T08:01:48.216Z,7.42
2018-12-31T08:02:48.134Z,7.45
2018-12-31T08:03:48.054Z,7.42
2018-12-31T08:04:47.975Z,7.39
2018-12-31T08:05:47.896Z,7.47
2018-12-31T08:06:47.816Z,7.38
2018-12-31T08:07:47.809Z,7.38
2018-12-31T08:08:47.656Z,7.42
2018-12-31T08:09:47.577Z,7.47
2018-12-31T08:10:47.499Z,7.38
2018-12-31T08:11:47.422Z,7.39
2018-12-31T08:12:47.337Z,7.39
2018-12-31T08:13:47.258Z,7.38
2018-12-31T08:14:47.177Z,7.38
2018-12-31T08:15:47.099Z,7.41
2018-12-31T08:16:47.019Z,7.41
2018-12-31T08:17:46.939Z,7.48
2018-12-31T08:18:46.860Z,7.41
2018-12-31T08:19:46.780Z,7.47
2018-12-31T08:20:46.699Z,7.56
2018-12-31T08:21:46.619Z,7.53
2018-12-31T08:22:46.539Z,7.52
2018-12-31T08:23:46.459Z,7.49
2018-12-31T08:24:46.380Z,7.57
2018-12-31T08:25:46.301Z,7.52
2018-12-31T08:26:46.222Z,7.53
2018-12-31T08:27:46.141Z,7.55
2018-12-31T08:28:46.060Z,7.52
2018-12-31T08:29:45.981Z,7.49
2018-12-31T08:30:45.907Z,7.52
2018-12-31T08:31:45.821Z,7.52
2018-12-31T08:32:45.745Z,7.62
2018-12-31T08:33:45.662Z,7.57
2018-12-31T08:34:45.583Z,7.48
2018-12-31T08:35:45.506Z,7.56
2018-12-31T08:36:45.423Z,7.59
2018-12-31T08:37:45.344Z,7.63
2018-12-31T08:38:45.264Z,7.57
2018-12-31T08:39:45.183Z,7.57
2018-12-31T08:40:45.104Z,7.57
2018-12-31T08:41:45.024Z,7.59
2018-12-31T08:42:44.947Z,7.59
2018-12-31T08:43:44.864Z,7.55
2018-12-31T08:44:44.785Z,7.63
2018-12-31T08:45:44.705Z,7.62
2018-12-31T08:46:44.626Z,7.63
2018-12-31T08:47:44.544Z,7.60
2018-12-31T08:48:44.466Z,7.70
2018-12-31T08:49:44.388Z,7.68
2018-12-31T08:50:44.308Z,7.70
2018-12-31T08:51:44.225Z,7.72
2018-12-31T08:52:44.148Z,7.75
2018-12-31T08:53:44.067Z,7.73
2018-12-31T08:54:43.988Z,7.70
2018-12-31T08:55:43.907Z,7.68
2018-12-31T08:56:43.829Z,7.72
2018-12-31T08:57:43.749Z,7.67
2018-12-31T08:58:43.670Z,7.79
2018-12-31T08:59:43.589Z,7.81
2018-12-31T09:00:43.511Z,7.72
2018-12-31T09:01:43.430Z,7.81
2018-12-31T09:02:43.355Z,7.72
2018-12-31T09:03:43.271Z,7.73
2018-12-31T09:04:43.192Z,7.72
2018-12-31T09:05:43.117Z,7.76
2018-12-31T09:06:43.034Z,7.67
2018-12-31T09:07:42.953Z,7.76
2018-12-31T09:08:42.874Z,7.81
2018-12-31T09:09:42.794Z,7.75
2018-12-31T09:10:42.716Z,7.73
2018-12-31T09:11:42.636Z,7.88
2018-12-31T09:12:42.555Z,7.90
2018-12-31T09:13:42.476Z,7.85
2018-12-31T09:14:42.397Z,7.86
2018-12-31T09:15:42.319Z,7.88
2018-12-31T09:16:42.238Z,7.83
2018-12-31T09:17:42.161Z,7.86
2018-12-31T09:18:42.081Z,7.90
2018-12-31T09:19:42.001Z,7.81
2018-12-31T09:20:41.921Z,7.86
2018-12-31T09:21:41.840Z,7.88
2018-12-31T09:22:41.761Z,7.96
2018-12-31T09:23:41.683Z,7.86
2018-12-31T09:24:44.700Z,7.90
2018-12-31T09:25:41.522Z,7.85
2018-12-31T09:26:41.443Z,7.81
2018-12-31T09:27:41.363Z,7.88
2018-12-31T09:28:41.285Z,8.03
2018-12-31T09:29:41.204Z,7.96
2018-12-31T09:30:41.128Z,7.90
2018-12-31T09:31:41.045Z,7.96
2018-12-31T09:32:40.966Z,7.93
2018-12-31T09:33:40.886Z,7.85
2018-12-31T09:34:40.808Z,7.97
2018-12-31T09:35:40.728Z,7.88
2018-12-31T09:36:40.648Z,7.94
2018-12-31T09:37:40.569Z,7.93
2018-12-31T09:38:40.489Z,7.85
2018-12-31T09:39:40.410Z,7.86
2018-12-31T09:40:40.332Z,7.97
2018-12-31T09:41:40.250Z,7.97
2018-12-31T09:42:40.171Z,8.01
2018-12-31T09:43:40.095Z,7.97
2018-12-31T09:44:40.012Z,8.00
2018-12-31T09:45:39.933Z,8.00
2018-12-31T09:46:39.853Z,7.86
2018-12-31T09:47:39.822Z,7.93
2018-12-31T09:48:39.693Z,7.97
2018-12-31T09:49:39.614Z,7.97
2018-12-31T09:50:39.535Z,7.97
2018-12-31T09:51:39.538Z,7.96
2018-12-31T09:52:39.376Z,7.99
2018-12-31T09:53:39.300Z,8.01
2018-12-31T09:54:39.216Z,8.09
2018-12-31T09:55:39.135Z,8.09
2018-12-31T09:56:39.058Z,8.09
2018-12-31T09:57:38.977Z,8.01
2018-12-31T09:58:38.898Z,8.04
2018-12-31T09:59:38.817Z,8.04
2018-12-31T10:00:38.738Z,8.03
2018-12-31T10:01:38.659Z,8.15
2018-12-31T10:02:38.580Z,8.04
2018-12-31T10:03:38.500Z,8.06
2018-12-31T10:04:38.420Z,8.06
2018-12-31T10:05:38.343Z,8.03
2018-12-31T10:06:38.263Z,8.00
2018-12-31T10:07:38.185Z,8.11
2018-12-31T10:08:38.104Z,8.03
2018-12-31T10:09:38.025Z,7.96
2018-12-31T10:10:37.950Z,8.07
2018-12-31T10:11:37.866Z,8.14
2018-12-31T10:12:37.786Z,8.09
2018-12-31T10:13:37.708Z,8.11
2018-12-31T10:14:37.628Z,8.04
2018-12-31T10:15:37.548Z,8.04
2018-12-31T10:16:37.469Z,8.11
2018-12-31T10:17:37.390Z,8.04
2018-12-31T10:18:37.311Z,8.09
2018-12-31T10:19:37.333Z,8.03
2018-12-31T10:20:37.154Z,8.06
2018-12-31T10:21:40.965Z,8.03
2018-12-31T10:22:36.993Z,8.00
2018-12-31T10:23:36.914Z,8.04
2018-12-31T10:24:36.835Z,8.06
2018-12-31T10:25:36.756Z,8.03
2018-12-31T10:26:36.676Z,8.03
2018-12-31T10:27:36.595Z,8.06
2018-12-31T10:28:36.518Z,8.11
2018-12-31T10:29:36.502Z,8.11
2018-12-31T10:30:36.358Z,8.07
2018-12-31T10:31:36.278Z,8.15
2018-12-31T10:32:36.199Z,8.25
2018-12-31T10:33:36.121Z,8.18
2018-12-31T10:34:36.041Z,8.18
2018-12-31T10:35:35.961Z,8.21
2018-12-31T10:36:35.884Z,8.22
2018-12-31T10:37:35.857Z,8.27
2018-12-31T10:38:35.725Z,8.18
2018-12-31T10:39:35.645Z,8.21
2018-12-31T10:40:35.566Z,8.29
2018-12-31T10:41:35.487Z,8.18
2018-12-31T10:42:35.409Z,8.32
2018-12-31T10:43:35.428Z,8.27
2018-12-31T10:44:35.249Z,8.24
2018-12-31T10:45:35.170Z,8.27
2018-12-31T10:46:35.092Z,8.21
2018-12-31T10:47:35.011Z,8.22
2018-12-31T10:48:34.934Z,8.21
2018-12-31T10:49:34.855Z,8.19
2018-12-31T10:50:34.775Z,8.24
2018-12-31T10:51:34.696Z,8.18
2018-12-31T10:52:34.618Z,8.30
2018-12-31T10:53:34.539Z,8.24
2018-12-31T10:54:34.461Z,8.19
2018-12-31T10:55:34.430Z,8.19
2018-12-31T10:56:34.302Z,8.19
2018-12-31T10:57:34.222Z,8.21
2018-12-31T10:58:34.144Z,8.19
2018-12-31T10:59:34.064Z,8.21
2018-12-31T11:00:33.985Z,8.18
2018-12-31T11:01:33.906Z,8.25
2018-12-31T11:02:33.828Z,8.22
2018-12-31T11:03:33.746Z,8.21
2018-12-31T11:04:33.671Z,8.19
2018-12-31T11:05:33.590Z,8.29
2018-12-31T11:06:33.511Z,8.22
2018-12-31T11:07:33.433Z,8.18
2018-12-31T11:08:33.351Z,8.21
2018-12-31T11:09:33.273Z,8.33
2018-12-31T11:10:33.194Z,8.30
2018-12-31T11:11:33.115Z,8.22
2018-12-31T11:12:33.038Z,8.22
2018-12-31T11:13:33.005Z,8.22
2018-12-31T11:14:32.878Z,8.27
2018-12-31T11:15:32.801Z,8.30
2018-12-31T11:16:32.720Z,8.25
2018-12-31T11:17:32.638Z,8.25
2018-12-31T11:18:32.565Z,8.22
2018-12-31T11:19:33.468Z,8.32
2018-12-31T11:20:32.401Z,8.27
2018-12-31T11:21:32.324Z,8.24
2018-12-31T11:22:32.243Z,8.22
2018-12-31T11:23:32.164Z,8.24
2018-12-31T11:24:32.085Z,8.22
2018-12-31T11:25:32.006Z,8.33
2018-12-31T11:26:31.928Z,8.27
2018-12-31T11:27:31.851Z,8.32
2018-12-31T11:28:31.770Z,8.27
2018-12-31T11:29:31.693Z,8.29
2018-12-31T11:30:31.612Z,8.27
2018-12-31T11:31:31.582Z,8.29
2018-12-31T11:32:31.452Z,8.27
2018-12-31T11:33:31.374Z,8.25
2018-12-31T11:34:31.296Z,8.34
2018-12-31T11:35:31.214Z,8.32
2018-12-31T11:36:32.462Z,8.42
2018-12-31T11:37:34.831Z,8.34
2018-12-31T11:38:30.979Z,8.40
2018-12-31T11:39:30.898Z,8.40
2018-12-31T11:40:30.822Z,8.42
2018-12-31T11:41:30.743Z,8.47
2018-12-31T11:42:30.669Z,8.39
2018-12-31T11:43:30.586Z,8.32
2018-12-31T11:44:30.505Z,8.27
2018-12-31T11:45:30.435Z,8.36
2018-12-31T11:46:30.348Z,8.29
2018-12-31T11:47:30.268Z,8.40
2018-12-31T11:48:30.190Z,8.43
2018-12-31T11:49:30.112Z,8.47
2018-12-31T11:50:30.033Z,8.40
2018-12-31T11:51:29.954Z,8.43
2018-12-31T11:52:29.876Z,8.51
2018-12-31T11:53:29.795Z,8.42
2018-12-31T11:54:29.717Z,8.44
2018-12-31T11:55:29.637Z,8.39
2018-12-31T11:56:29.560Z,8.36
2018-12-31T11:57:29.481Z,8.33
2018-12-31T11:58:29.402Z,8.30
2018-12-31T11:59:29.323Z,8.24
2018-12-31T12:00:29.243Z,8.34
2018-12-31T12:01:29.215Z,8.25
2018-12-31T12:02:29.085Z,8.37
2018-12-31T12:03:29.009Z,8.21
2018-12-31T12:04:28.928Z,8.29
2018-12-31T12:05:28.849Z,8.33
2018-12-31T12:06:28.774Z,8.34
2018-12-31T12:07:28.740Z,8.36
2018-12-31T12:08:28.613Z,8.39
2018-12-31T12:09:28.537Z,8.25
2018-12-31T12:10:28.454Z,8.32
2018-12-31T12:11:28.375Z,8.39
2018-12-31T12:12:28.295Z,8.33
2018-12-31T12:13:28.217Z,8.42
2018-12-31T12:14:28.139Z,8.42
2018-12-31T12:15:28.057Z,8.40
2018-12-31T12:16:27.981Z,8.44
2018-12-31T12:17:27.901Z,8.47
2018-12-31T12:18:27.826Z,8.44
2018-12-31T12:19:27.743Z,8.50
2018-12-31T12:20:27.664Z,8.48
2018-12-31T12:21:27.586Z,8.44
2018-12-31T12:22:27.507Z,8.52
2018-12-31T12:23:27.427Z,8.57
2018-12-31T12:24:27.349Z,8.51
2018-12-31T12:25:27.321Z,8.54
2018-12-31T12:26:27.192Z,8.57
2018-12-31T12:27:27.112Z,8.57
2018-12-31T12:28:27.036Z,8.54
2018-12-31T12:29:26.957Z,8.54
2018-12-31T12:30:26.878Z,8.47
2018-12-31T12:31:26.800Z,8.52
2018-12-31T12:32:26.720Z,8.58
2018-12-31T12:33:26.646Z,8.55
2018-12-31T12:34:26.562Z,8.54
2018-12-31T12:35:26.483Z,8.48
2018-12-31T12:36:26.403Z,8.44
2018-12-31T12:37:26.325Z,8.44
2018-12-31T12:38:26.245Z,8.42
2018-12-31T12:39:26.167Z,8.39
2018-12-31T12:40:26.088Z,8.39
2018-12-31T12:41:26.010Z,8.40
2018-12-31T12:42:25.932Z,8.40
2018-12-31T12:43:26.101Z,8.37
2018-12-31T12:44:25.773Z,8.36
2018-12-31T12:45:25.694Z,8.37
2018-12-31T12:46:25.616Z,8.39
2018-12-31T12:47:25.536Z,8.37
2018-12-31T12:48:25.457Z,8.43
2018-12-31T12:49:25.380Z,8.42
2018-12-31T12:50:25.300Z,8.44
2018-12-31T12:51:25.219Z,8.42
2018-12-31T12:52:25.140Z,8.43
2018-12-31T12:53:25.063Z,8.37
2018-12-31T12:54:24.985Z,8.37
2018-12-31T12:55:24.904Z,8.42
2018-12-31T12:56:24.826Z,8.42
2018-12-31T12:57:24.748Z,8.48
2018-12-31T12:58:24.669Z,8.50
2018-12-31T12:59:24.590Z,8.42
2018-12-31T13:00:24.510Z,8.36
2018-12-31T13:01:24.431Z,8.34
2018-12-31T13:02:24.353Z,8.44
2018-12-31T13:03:24.278Z,8.50
2018-12-31T13:04:24.195Z,8.55
2018-12-31T13:05:24.117Z,8.51
2018-12-31T13:06:24.037Z,8.58
2018-12-31T13:07:23.958Z,8.55
2018-12-31T13:08:23.881Z,8.57
2018-12-31T13:09:23.801Z,8.58
2018-12-31T13:10:23.722Z,8.61
2018-12-31T13:11:23.642Z,8.68
2018-12-31T13:12:23.565Z,8.65
2018-12-31T13:13:23.485Z,8.72
2018-12-31T13:14:23.407Z,8.72
2018-12-31T13:15:23.329Z,8.69
2018-12-31T13:16:23.249Z,8.79
2018-12-31T13:17:23.169Z,8.79